Terminal Aerodrome Forecast
Issued by NWS

Home | Current Version | Previous Version | Text Only | Print | Product List | Glossary On
Versions: 1 2 3 4 5 6 7 8 9 10 11 12 13 14 15 16 17 18 19 20 21 22 23 24 25
000
FTUS46 KSGX 031120
TAFCRQ
TAF
KCRQ 031120Z 0312/0412 VRB03KT P6SM OVC008
     FM031700 VRB05KT P6SM BKN010
     FM031800 26008KT P6SM FEW012
     FM040400 VRB04KT P6SM BKN011
     FM040700 VRB03KT P6SM OVC009=

USA.gov is the U.S. government's official web portal to all federal, state and local government web resources and services.